Toyomasa Maru — JJ3927 — position and weather

sailwx.info

Track history (hours):
 
Tides and Currents Weather Stations Pressure Air Temp Water Temp Dewpoint Dewpoint Depression Visibility Wind Speed Wind Dir Waves Ship Positions

Toyomasa Maru

Last reported at 2014-Dec-19 15:18 UTC. Time now 2014-Dec-19 15:49 UTC.
Position N 34°07' E 135°07'.

Length 101 m; draft 4.3 m.

Type: Tanker. MMSI: 431300401.

Date/timePositionNaut miles runAvg speedWind from/ knotsBaromVisibWave heightAir tempDewpointWater temp
2014-Dec-19 15:18N 34°07' E 135°07'0 0.0
2014-Dec-19 14:24N 34°07' E 135°07'0 0.0
2014-Dec-19 13:12N 34°07' E 135°07'0 0.0
2014-Dec-19 12:30N 34°07' E 135°07'1 1.2
2014-Dec-19 11:33N 34°08' E 135°06'3 3.1
2014-Dec-19 10:33N 34°10' E 135°04'1311.7
2014-Dec-19 09:27N 34°23' E 135°00'1213.2
2014-Dec-19 08:33N 34°34' E 135°06'5 5.2
2014-Dec-19 07:33N 34°39' E 135°08'0 0.0
2014-Dec-19 06:33N 34°39' E 135°08'0 0.0
2014-Dec-19 05:33N 34°39' E 135°08'0 0.0
2014-Dec-19 04:33N 34°39' E 135°08'0 0.0
2014-Dec-19 03:29N 34°39' E 135°08'0 0.0
2014-Dec-19 02:33N 34°39' E 135°08'0 0.0
2014-Dec-19 01:33N 34°39' E 135°08'3 2.8
2014-Dec-19 00:33N 34°36' E 135°07'2612.8
2014-Dec-18 22:33N 34°11' E 135°00'  
2014-Dec-16 09:33N 35°09' E 139°44'1212.1
2014-Dec-16 08:33N 35°21' E 139°42'9 6.9
2014-Dec-16 07:14N 35°30' E 139°45'0 0.0
2014-Dec-16 06:26N 35°30' E 139°45'0 0.0
2014-Dec-16 05:13N 35°30' E 139°45'0 0.0
2014-Dec-16 04:11N 35°30' E 139°45'0 0.0
2014-Dec-16 03:29N 35°30' E 139°45'2 2.0
2014-Dec-16 02:33N 35°29' E 139°43'9 8.3
2014-Dec-16 01:27N 35°20' E 139°45'  
2014-Dec-13 18:14N 35°09' E 139°45'812.7
2014-Dec-13 17:33N 35°18' E 139°44'1111.0
2014-Dec-13 16:33N 35°28' E 139°49'10 1.2
2014-Dec-13 08:30N 35°29' E 140°01'2 2.5
2014-Dec-13 07:33N 35°30' E 139°58'0 0.0
2014-Dec-13 06:33N 35°30' E 139°58'7 6.6
2014-Dec-13 05:33N 35°27' E 139°50'1211.6
2014-Dec-13 04:33N 35°16' E 139°47'  
Track history (hours):
 
Tides and Currents Weather Stations Pressure Air Temp Water Temp Dewpoint Dewpoint Depression Visibility Wind Speed Wind Dir Waves Ship Positions

Toyomasa Maru

Last reported at 2014-Dec-19 15:18 UTC. Time now 2014-Dec-19 15:49 UTC.
Position N 34°07' E 135°07'.

Length 101 m; draft 4.3 m.

Type: Tanker. MMSI: 431300401.

Date/timePositionNaut miles runAvg speedWind from/ knotsBaromVisibWave heightAir tempDewpointWater temp
2014-Dec-19 15:18N 34°07' E 135°07'0 0.0
2014-Dec-19 14:24N 34°07' E 135°07'0 0.0
2014-Dec-19 13:12N 34°07' E 135°07'0 0.0
2014-Dec-19 12:30N 34°07' E 135°07'1 1.2
2014-Dec-19 11:33N 34°08' E 135°06'3 3.1
2014-Dec-19 10:33N 34°10' E 135°04'1311.7
2014-Dec-19 09:27N 34°23' E 135°00'1213.2
2014-Dec-19 08:33N 34°34' E 135°06'5 5.2
2014-Dec-19 07:33N 34°39' E 135°08'0 0.0
2014-Dec-19 06:33N 34°39' E 135°08'0 0.0
2014-Dec-19 05:33N 34°39' E 135°08'0 0.0
2014-Dec-19 04:33N 34°39' E 135°08'0 0.0
2014-Dec-19 03:29N 34°39' E 135°08'0 0.0
2014-Dec-19 02:33N 34°39' E 135°08'0 0.0
2014-Dec-19 01:33N 34°39' E 135°08'3 2.8
2014-Dec-19 00:33N 34°36' E 135°07'2612.8
2014-Dec-18 22:33N 34°11' E 135°00'  
2014-Dec-16 09:33N 35°09' E 139°44'1212.1
2014-Dec-16 08:33N 35°21' E 139°42'9 6.9
2014-Dec-16 07:14N 35°30' E 139°45'0 0.0
2014-Dec-16 06:26N 35°30' E 139°45'0 0.0
2014-Dec-16 05:13N 35°30' E 139°45'0 0.0
2014-Dec-16 04:11N 35°30' E 139°45'0 0.0
2014-Dec-16 03:29N 35°30' E 139°45'2 2.0
2014-Dec-16 02:33N 35°29' E 139°43'9 8.3
2014-Dec-16 01:27N 35°20' E 139°45'  
2014-Dec-13 18:14N 35°09' E 139°45'812.7
2014-Dec-13 17:33N 35°18' E 139°44'1111.0
2014-Dec-13 16:33N 35°28' E 139°49'10 1.2
2014-Dec-13 08:30N 35°29' E 140°01'2 2.5
2014-Dec-13 07:33N 35°30' E 139°58'0 0.0
2014-Dec-13 06:33N 35°30' E 139°58'7 6.6
2014-Dec-13 05:33N 35°27' E 139°50'1211.6
2014-Dec-13 04:33N 35°16' E 139°47'  

Dump ship's entire track history